Time;durP1;ratioP1;P1;durP2;ratioP2;P2;SDS_P1;SDS_P2;PMS_P1;PMS_P2;Temp;Humidity;BMP_temperature;BMP_pressure;BME280_temperature;BME280_humidity;BME280_pressure;Samples;Min_cycle;Max_cycle;Signal;HPM_P1;HPM_P2
2021/05/31 00:01:53;;;;;;;3.90;1.70;;;;;;;;;;4974112;28;20023;-13
2021/05/31 00:04:18;;;;;;;1.73;1.55;;;;;;;;;;4973928;28;20504;-13
2021/05/31 00:06:55;;;;;;;1.48;1.38;;;;;;;;;;4972827;28;20026;-12
2021/05/31 00:09:20;;;;;;;2.58;1.63;;;;;;;;;;4973891;28;20027;-12
2021/05/31 00:11:45;;;;;;;1.17;1.08;;;;;;;;;;4974193;28;20033;-12
2021/05/31 00:14:11;;;;;;;1.55;1.20;;;;;;;;;;4973699;28;20478;-12
2021/05/31 00:16:36;;;;;;;1.10;1.00;;;;;;;;;;4974139;28;20031;-13
2021/05/31 00:19:03;;;;;;;3.08;1.60;;;;;;;;;;4973807;28;20027;-13
2021/05/31 00:21:29;;;;;;;2.22;1.50;;;;;;;;;;4973794;28;20023;-13
2021/05/31 00:23:54;;;;;;;2.30;1.60;;;;;;;;;;4973660;28;20030;-13
2021/05/31 00:26:20;;;;;;;1.58;1.27;;;;;;;;;;4973659;28;20019;-13
2021/05/31 00:28:45;;;;;;;3.72;1.50;;;;;;;;;;4973808;28;20067;-13
2021/05/31 00:31:11;;;;;;;2.67;1.30;;;;;;;;;;4973622;28;20018;-13
2021/05/31 00:33:38;;;;;;;5.82;1.40;;;;;;;;;;4972083;28;20034;-13
2021/05/31 00:36:03;;;;;;;1.38;1.20;;;;;;;;;;4973916;28;20042;-13
2021/05/31 00:38:29;;;;;;;6.35;1.50;;;;;;;;;;4973743;28;20498;-19
2021/05/31 00:40:54;;;;;;;2.15;1.55;;;;;;;;;;4973576;28;20073;-13
2021/05/31 00:43:20;;;;;;;2.03;1.30;;;;;;;;;;4973615;28;20043;-13
2021/05/31 00:45:45;;;;;;;2.45;1.40;;;;;;;;;;4973527;28;20022;-16
2021/05/31 00:48:10;;;;;;;1.40;1.00;;;;;;;;;;4973444;28;20109;-12
2021/05/31 00:50:36;;;;;;;7.35;1.73;;;;;;;;;;4973552;28;20025;-13
2021/05/31 00:53:01;;;;;;;2.45;1.60;;;;;;;;;;4973481;28;20113;-13
2021/05/31 00:55:27;;;;;;;2.67;1.70;;;;;;;;;;4973582;28;20466;-12
2021/05/31 00:57:53;;;;;;;3.00;1.40;;;;;;;;;;4973543;28;20405;-13
2021/05/31 01:00:18;;;;;;;2.88;1.50;;;;;;;;;;4973442;28;20065;-13
2021/05/31 01:02:44;;;;;;;2.80;1.38;;;;;;;;;;4973327;28;20026;-12
2021/05/31 01:05:10;;;;;;;2.47;1.60;;;;;;;;;;4973619;28;20027;-12
2021/05/31 01:07:36;;;;;;;1.45;1.20;;;;;;;;;;4973439;28;20367;-13
2021/05/31 01:10:04;;;;;;;1.65;1.17;;;;;;;;;;4973245;28;20029;-13
2021/05/31 01:12:33;;;;;;;3.20;1.50;;;;;;;;;;4976399;28;20110;-13
2021/05/31 01:15:02;;;;;;;3.67;1.63;;;;;;;;;;4977326;28;20022;-12
2021/05/31 01:17:31;;;;;;;2.65;1.27;;;;;;;;;;4976946;28;20031;-13
2021/05/31 01:20:02;;;;;;;1.40;1.30;;;;;;;;;;4977028;28;20022;-13
2021/05/31 01:22:29;;;;;;;1.80;1.60;;;;;;;;;;4977168;28;20026;-13
2021/05/31 01:25:04;;;;;;;2.13;1.35;;;;;;;;;;4975676;28;20062;-13
2021/05/31 01:27:41;;;;;;;1.55;1.30;;;;;;;;;;4977082;28;20046;-13
2021/05/31 01:30:10;;;;;;;1.88;1.42;;;;;;;;;;4977150;28;20098;-13
2021/05/31 01:32:37;;;;;;;2.40;1.48;;;;;;;;;;4976813;28;20105;-13
2021/05/31 01:35:04;;;;;;;2.03;1.40;;;;;;;;;;4976599;28;20047;-13
2021/05/31 01:37:31;;;;;;;2.60;1.40;;;;;;;;;;4976851;28;20398;-12
2021/05/31 01:39:59;;;;;;;3.28;1.33;;;;;;;;;;4975435;28;20039;-13
2021/05/31 01:42:25;;;;;;;3.13;1.42;;;;;;;;;;4976827;28;20376;-13
2021/05/31 01:44:51;;;;;;;1.45;1.13;;;;;;;;;;4976527;28;20106;-13
2021/05/31 01:47:17;;;;;;;2.17;1.70;;;;;;;;;;4976751;28;20109;-13
2021/05/31 01:49:44;;;;;;;2.05;1.85;;;;;;;;;;4976558;28;20038;-12
2021/05/31 01:52:10;;;;;;;2.28;1.60;;;;;;;;;;4976617;28;20551;-12
2021/05/31 01:54:36;;;;;;;2.10;1.30;;;;;;;;;;4976524;28;20089;-13
2021/05/31 01:57:02;;;;;;;2.40;1.33;;;;;;;;;;4976760;28;20058;-12
2021/05/31 01:59:28;;;;;;;5.25;2.10;;;;;;;;;;4976457;28;20030;-13
2021/05/31 02:01:53;;;;;;;5.05;1.38;;;;;;;;;;4976345;28;20441;-13
2021/05/31 02:04:19;;;;;;;2.30;1.63;;;;;;;;;;4976120;28;20465;-13
2021/05/31 02:06:44;;;;;;;5.57;1.70;;;;;;;;;;4976185;28;20045;-12
2021/05/31 02:09:10;;;;;;;1.42;1.33;;;;;;;;;;4976098;28;20102;-14
2021/05/31 02:11:35;;;;;;;2.10;1.60;;;;;;;;;;4976379;28;20046;-13
2021/05/31 02:14:07;;;;;;;1.60;1.40;;;;;;;;;;4976182;28;20030;-13
2021/05/31 02:16:46;;;;;;;2.40;1.67;;;;;;;;;;4976051;28;20035;-13
2021/05/31 02:19:13;;;;;;;2.20;1.45;;;;;;;;;;4976107;28;20058;-13
2021/05/31 02:21:40;;;;;;;1.85;1.15;;;;;;;;;;4975835;28;20374;-13
2021/05/31 02:24:06;;;;;;;3.65;1.45;;;;;;;;;;4975728;28;20085;-12
2021/05/31 02:26:32;;;;;;;2.03;1.67;;;;;;;;;;4976070;28;20026;-12
2021/05/31 02:28:58;;;;;;;1.40;1.20;;;;;;;;;;4976019;28;20374;-13
2021/05/31 02:31:24;;;;;;;2.63;1.60;;;;;;;;;;4974368;28;20022;-14
2021/05/31 02:33:49;;;;;;;1.67;1.40;;;;;;;;;;4975530;28;20046;-13
2021/05/31 02:36:16;;;;;;;2.38;1.73;;;;;;;;;;4975493;28;20410;-12
2021/05/31 02:38:42;;;;;;;1.77;1.50;;;;;;;;;;4975666;28;20046;-14
2021/05/31 02:41:08;;;;;;;2.53;1.70;;;;;;;;;;4975798;28;20027;-14
2021/05/31 02:43:33;;;;;;;4.78;1.52;;;;;;;;;;4975338;28;20114;-13
2021/05/31 02:45:59;;;;;;;3.83;1.40;;;;;;;;;;4975539;28;20043;-17
2021/05/31 02:48:25;;;;;;;3.25;1.67;;;;;;;;;;4975616;28;20035;-12
2021/05/31 02:50:51;;;;;;;6.85;2.17;;;;;;;;;;4975505;28;20052;-13
2021/05/31 02:53:16;;;;;;;1.95;1.45;;;;;;;;;;4975523;28;20059;-12
2021/05/31 02:55:41;;;;;;;2.67;1.88;;;;;;;;;;4975156;28;20465;-13
2021/05/31 02:58:07;;;;;;;2.80;1.45;;;;;;;;;;4975308;28;20397;-13
2021/05/31 03:00:32;;;;;;;1.77;1.30;;;;;;;;;;4975427;28;20031;-13
2021/05/31 03:02:58;;;;;;;2.92;1.52;;;;;;;;;;4975325;28;20023;-13
2021/05/31 03:05:28;;;;;;;2.42;1.98;;;;;;;;;;4975082;28;20018;-12
2021/05/31 03:07:54;;;;;;;1.70;1.30;;;;;;;;;;4975256;28;20350;-12
2021/05/31 03:10:20;;;;;;;4.50;1.45;;;;;;;;;;4973604;28;20023;-12
2021/05/31 03:12:46;;;;;;;1.70;1.45;;;;;;;;;;4973699;28;20500;-12
2021/05/31 03:15:13;;;;;;;6.28;1.70;;;;;;;;;;4974729;28;20597;-13
2021/05/31 03:17:38;;;;;;;3.40;1.60;;;;;;;;;;4975171;28;20033;-13
2021/05/31 03:20:04;;;;;;;5.15;1.70;;;;;;;;;;4974785;28;20105;-13
2021/05/31 03:22:30;;;;;;;3.97;1.52;;;;;;;;;;4974670;28;20039;-13
2021/05/31 03:24:55;;;;;;;2.05;1.52;;;;;;;;;;4974942;28;20029;-12
2021/05/31 03:27:21;;;;;;;1.73;1.60;;;;;;;;;;4974628;28;20097;-13
2021/05/31 03:29:46;;;;;;;2.13;1.92;;;;;;;;;;4974802;28;20022;-13
2021/05/31 03:32:12;;;;;;;2.40;1.52;;;;;;;;;;4974725;28;20109;-13
2021/05/31 03:34:37;;;;;;;2.63;1.77;;;;;;;;;;4973927;28;20126;-12
2021/05/31 03:37:03;;;;;;;2.72;1.73;;;;;;;;;;4974568;28;20085;-13
2021/05/31 03:39:28;;;;;;;1.77;1.50;;;;;;;;;;4974600;28;20031;-13
2021/05/31 03:41:55;;;;;;;3.45;2.15;;;;;;;;;;4974767;28;20085;-13
2021/05/31 03:44:20;;;;;;;1.70;1.35;;;;;;;;;;4974320;28;20367;-13
2021/05/31 03:46:45;;;;;;;3.33;1.55;;;;;;;;;;4974253;28;20078;-13
2021/05/31 03:49:11;;;;;;;1.17;1.08;;;;;;;;;;4974358;28;20026;-13
2021/05/31 03:51:36;;;;;;;1.70;1.40;;;;;;;;;;4974782;28;20055;-13
2021/05/31 03:54:01;;;;;;;4.22;1.67;;;;;;;;;;4974147;28;20090;-12
2021/05/31 03:56:27;;;;;;;2.00;1.52;;;;;;;;;;4974316;28;20085;-13
2021/05/31 03:58:53;;;;;;;5.53;2.55;;;;;;;;;;4974401;28;20023;-13
2021/05/31 04:01:19;;;;;;;2.45;1.80;;;;;;;;;;4972765;28;20035;-12
2021/05/31 04:03:45;;;;;;;1.70;1.25;;;;;;;;;;4974028;28;20019;-15
2021/05/31 04:11:35;;;;;;;1.92;1.70;;;;;;;;;;4974174;28;20039;-13
2021/05/31 04:14:04;;;;;;;1.95;1.45;;;;;;;;;;4974079;28;20085;-13
2021/05/31 04:16:30;;;;;;;2.90;1.80;;;;;;;;;;4972511;28;20161;-12
2021/05/31 04:18:55;;;;;;;1.98;1.45;;;;;;;;;;4974175;28;20129;-12
2021/05/31 04:21:21;;;;;;;4.30;1.77;;;;;;;;;;4972375;28;20019;-12
2021/05/31 04:23:46;;;;;;;2.03;1.77;;;;;;;;;;4973773;28;20393;-13
2021/05/31 04:26:12;;;;;;;7.47;1.92;;;;;;;;;;4973961;28;20078;-12
2021/05/31 04:28:37;;;;;;;3.90;1.40;;;;;;;;;;4974033;28;20035;-13
2021/05/31 04:31:03;;;;;;;4.30;1.80;;;;;;;;;;4973957;28;20520;-13
2021/05/31 04:33:28;;;;;;;4.25;1.58;;;;;;;;;;4973485;28;20037;-13
2021/05/31 04:35:53;;;;;;;2.22;1.48;;;;;;;;;;4973546;28;20049;-13
2021/05/31 04:38:19;;;;;;;3.33;1.55;;;;;;;;;;4973523;28;20027;-13
2021/05/31 04:40:44;;;;;;;1.92;1.67;;;;;;;;;;4973691;28;20023;-13
2021/05/31 04:43:10;;;;;;;2.22;1.55;;;;;;;;;;4973493;28;20413;-13
2021/05/31 04:45:35;;;;;;;2.13;1.35;;;;;;;;;;4973620;28;20022;-12
2021/05/31 04:48:01;;;;;;;1.70;1.40;;;;;;;;;;4977689;28;20026;-12
2021/05/31 04:50:26;;;;;;;2.10;1.67;;;;;;;;;;4977513;28;20066;-12
2021/05/31 04:52:51;;;;;;;2.00;1.70;;;;;;;;;;4977460;28;20042;-13
2021/05/31 04:55:18;;;;;;;2.30;1.70;;;;;;;;;;4977574;28;20041;-13
2021/05/31 04:57:44;;;;;;;1.70;1.50;;;;;;;;;;4977431;28;20038;-13
2021/05/31 05:00:10;;;;;;;3.17;1.80;;;;;;;;;;4977717;28;20031;-13
2021/05/31 05:02:36;;;;;;;2.40;1.83;;;;;;;;;;4977273;28;20385;-12
2021/05/31 05:05:01;;;;;;;2.40;1.80;;;;;;;;;;4977482;28;20033;-13
2021/05/31 05:07:26;;;;;;;2.83;1.75;;;;;;;;;;4977262;28;20039;-12
2021/05/31 05:09:52;;;;;;;3.13;1.55;;;;;;;;;;4977199;28;20106;-13
2021/05/31 05:12:17;;;;;;;2.58;1.55;;;;;;;;;;4977268;28;20477;-13
2021/05/31 05:14:43;;;;;;;1.67;1.50;;;;;;;;;;4977400;28;20373;-13
2021/05/31 05:17:08;;;;;;;2.00;1.77;;;;;;;;;;4977161;28;20461;-12
2021/05/31 05:19:34;;;;;;;2.58;1.83;;;;;;;;;;4976946;28;20069;-12
2021/05/31 05:22:00;;;;;;;2.83;1.90;;;;;;;;;;4977332;28;20066;-12
2021/05/31 05:24:25;;;;;;;4.05;1.50;;;;;;;;;;4976822;28;20087;-13
2021/05/31 05:26:50;;;;;;;1.92;1.83;;;;;;;;;;4976940;28;20129;-13
2021/05/31 05:29:16;;;;;;;2.33;1.85;;;;;;;;;;4976818;28;20015;-12
2021/05/31 05:31:41;;;;;;;4.45;2.00;;;;;;;;;;4976808;28;20038;-13
2021/05/31 05:34:07;;;;;;;1.63;1.48;;;;;;;;;;4976706;28;20047;-13
2021/05/31 05:36:44;;;;;;;4.15;1.88;;;;;;;;;;4976669;28;20382;-12
2021/05/31 05:39:29;;;;;;;2.05;1.80;;;;;;;;;;4976735;28;20023;-13
2021/05/31 05:49:43;;;;;;;1.85;1.52;;;;;;;;;;4976546;28;20035;-13
2021/05/31 05:52:08;;;;;;;2.53;1.70;;;;;;;;;;4976444;28;20018;-12
2021/05/31 05:54:34;;;;;;;1.95;1.63;;;;;;;;;;4976260;28;20034;-12
2021/05/31 05:56:59;;;;;;;2.47;1.60;;;;;;;;;;4976001;28;20106;-13
2021/05/31 05:59:24;;;;;;;2.53;2.00;;;;;;;;;;4976337;28;20054;-12
2021/05/31 06:01:50;;;;;;;1.88;1.40;;;;;;;;;;4976251;28;20018;-13
2021/05/31 06:04:16;;;;;;;2.05;1.38;;;;;;;;;;4976436;28;20027;-12
2021/05/31 06:06:43;;;;;;;2.47;1.83;;;;;;;;;;4976216;28;20507;-13
2021/05/31 06:09:12;;;;;;;2.15;1.63;;;;;;;;;;4976240;28;20033;-13
2021/05/31 06:11:37;;;;;;;3.42;2.08;;;;;;;;;;4976101;28;20470;-13
2021/05/31 06:14:02;;;;;;;2.22;1.55;;;;;;;;;;4976077;28;20062;-13
2021/05/31 06:16:28;;;;;;;2.90;1.45;;;;;;;;;;4976106;28;20037;-13
2021/05/31 06:18:53;;;;;;;3.47;1.90;;;;;;;;;;4975956;28;20037;-13
2021/05/31 06:21:19;;;;;;;3.30;1.95;;;;;;;;;;4976188;28;20023;-13
2021/05/31 06:23:44;;;;;;;3.78;1.90;;;;;;;;;;4976044;28;20030;-13
2021/05/31 06:26:09;;;;;;;2.70;1.38;;;;;;;;;;4976197;28;20034;-12
2021/05/31 06:28:35;;;;;;;2.78;1.95;;;;;;;;;;4975710;28;20512;-13
2021/05/31 06:31:00;;;;;;;3.30;1.52;;;;;;;;;;4975727;28;20031;-13
2021/05/31 06:33:26;;;;;;;2.85;1.80;;;;;;;;;;4975745;28;20117;-13
2021/05/31 06:35:52;;;;;;;2.20;1.63;;;;;;;;;;4974260;28;20130;-13
2021/05/31 06:38:17;;;;;;;1.50;1.40;;;;;;;;;;4975577;28;20042;-12
2021/05/31 06:40:43;;;;;;;2.13;1.33;;;;;;;;;;4975630;28;20019;-13
2021/05/31 06:43:09;;;;;;;2.13;1.60;;;;;;;;;;4975482;28;20031;-12
2021/05/31 06:45:34;;;;;;;3.35;1.45;;;;;;;;;;4975393;28;20037;-12
2021/05/31 06:48:01;;;;;;;3.53;1.50;;;;;;;;;;4975488;28;20027;-12
2021/05/31 06:50:28;;;;;;;2.83;2.35;;;;;;;;;;4975579;28;20113;-12
2021/05/31 06:52:53;;;;;;;6.95;1.70;;;;;;;;;;4975330;28;20377;-12
2021/05/31 06:55:20;;;;;;;3.95;1.48;;;;;;;;;;4975509;28;20031;-12
2021/05/31 06:57:49;;;;;;;2.28;1.45;;;;;;;;;;4975261;28;20031;-13
2021/05/31 07:00:15;;;;;;;4.53;1.95;;;;;;;;;;4975099;28;20046;-13
2021/05/31 07:02:41;;;;;;;3.45;1.92;;;;;;;;;;4975440;28;20367;-13
2021/05/31 07:05:07;;;;;;;2.40;1.67;;;;;;;;;;4973876;28;20077;-13
2021/05/31 07:07:32;;;;;;;2.10;1.90;;;;;;;;;;4973740;28;20042;-13
2021/05/31 07:09:58;;;;;;;2.47;1.70;;;;;;;;;;4974249;28;20086;-13
2021/05/31 07:12:23;;;;;;;3.67;1.90;;;;;;;;;;4974737;28;20038;-18
2021/05/31 07:14:51;;;;;;;7.95;1.73;;;;;;;;;;4974923;28;20114;-13
2021/05/31 07:17:17;;;;;;;3.72;2.05;;;;;;;;;;4975143;28;20130;-12
2021/05/31 07:19:44;;;;;;;4.10;1.48;;;;;;;;;;4974946;28;20529;-12
2021/05/31 07:22:12;;;;;;;2.58;1.75;;;;;;;;;;4974801;28;20378;-15
2021/05/31 07:24:37;;;;;;;1.27;1.05;;;;;;;;;;4974947;28;20027;-12
2021/05/31 07:27:03;;;;;;;2.33;1.23;;;;;;;;;;4974674;28;20031;-13
2021/05/31 07:29:28;;;;;;;1.58;1.33;;;;;;;;;;4974674;28;20015;-13
2021/05/31 07:31:54;;;;;;;2.92;1.23;;;;;;;;;;4975000;28;20374;-13
2021/05/31 07:34:20;;;;;;;1.73;1.20;;;;;;;;;;4974331;28;20058;-12
2021/05/31 07:36:46;;;;;;;1.40;1.30;;;;;;;;;;4973333;28;20092;-13
2021/05/31 07:39:11;;;;;;;2.20;1.50;;;;;;;;;;4974559;28;20121;-13
2021/05/31 07:41:37;;;;;;;2.38;1.60;;;;;;;;;;4974367;28;20058;-13
2021/05/31 07:44:02;;;;;;;2.60;1.40;;;;;;;;;;4974385;28;20034;-13
2021/05/31 07:46:28;;;;;;;1.60;1.50;;;;;;;;;;4974559;28;20037;-13
2021/05/31 07:48:53;;;;;;;2.35;1.52;;;;;;;;;;4974353;28;20430;-13
2021/05/31 07:51:20;;;;;;;5.63;1.88;;;;;;;;;;4974281;28;20038;-13
2021/05/31 07:53:47;;;;;;;3.10;1.52;;;;;;;;;;4974477;28;20019;-13
2021/05/31 07:56:13;;;;;;;3.13;1.38;;;;;;;;;;4974334;28;20109;-13
2021/05/31 07:58:43;;;;;;;1.35;1.23;;;;;;;;;;4974173;28;20026;-13
2021/05/31 08:01:08;;;;;;;1.95;1.42;;;;;;;;;;4972875;28;20054;-13
2021/05/31 08:03:34;;;;;;;3.95;1.80;;;;;;;;;;4974181;28;20504;-13
2021/05/31 08:05:59;;;;;;;2.40;1.67;;;;;;;;;;4972826;28;20437;-13
2021/05/31 08:08:25;;;;;;;5.78;1.50;;;;;;;;;;4973998;28;20027;-12
2021/05/31 08:10:51;;;;;;;8.00;1.90;;;;;;;;;;4974259;28;20027;-13
2021/05/31 08:13:16;;;;;;;1.33;0.95;;;;;;;;;;4972535;28;20458;-12
2021/05/31 08:15:42;;;;;;;3.50;1.17;;;;;;;;;;4973856;28;20458;-13
2021/05/31 08:18:07;;;;;;;4.10;0.93;;;;;;;;;;4974185;28;20015;-12
2021/05/31 08:20:34;;;;;;;2.17;1.55;;;;;;;;;;4973774;28;20043;-12
2021/05/31 08:23:00;;;;;;;1.55;1.10;;;;;;;;;;4974056;28;20094;-13
2021/05/31 08:25:26;;;;;;;4.07;1.20;;;;;;;;;;4973723;28;20034;-14
2021/05/31 08:27:52;;;;;;;1.40;0.80;;;;;;;;;;4973832;28;20027;-13
2021/05/31 08:30:18;;;;;;;1.60;1.23;;;;;;;;;;4973613;28;20042;-13
2021/05/31 08:32:43;;;;;;;1.77;1.10;;;;;;;;;;4973700;28;20022;-13
2021/05/31 08:35:09;;;;;;;3.22;1.92;;;;;;;;;;4973523;28;20042;-13
2021/05/31 08:37:34;;;;;;;2.05;1.20;;;;;;;;;;4972225;28;20030;-12
2021/05/31 08:40:00;;;;;;;2.88;0.98;;;;;;;;;;4972484;28;20381;-13
2021/05/31 08:42:25;;;;;;;1.23;1.00;;;;;;;;;;4973453;28;20042;-14
2021/05/31 08:44:50;;;;;;;1.73;1.08;;;;;;;;;;4973827;28;20041;-12
2021/05/31 08:47:16;;;;;;;1.55;1.20;;;;;;;;;;4973496;28;20458;-13
2021/05/31 08:49:42;;;;;;;2.17;1.15;;;;;;;;;;4973536;28;20059;-13
2021/05/31 08:52:07;;;;;;;1.55;1.17;;;;;;;;;;4972199;28;20029;-13
2021/05/31 08:54:32;;;;;;;1.75;1.08;;;;;;;;;;4973322;28;20042;-13
2021/05/31 08:56:58;;;;;;;2.22;1.30;;;;;;;;;;4973713;28;20030;-13
2021/05/31 08:59:23;;;;;;;2.22;1.33;;;;;;;;;;4973163;28;20516;-13
2021/05/31 09:01:49;;;;;;;5.70;1.27;;;;;;;;;;4973593;28;20027;-12
2021/05/31 09:04:15;;;;;;;1.02;0.95;;;;;;;;;;4973512;28;20436;-13
2021/05/31 09:06:56;;;;;;;1.27;1.00;;;;;;;;;;4972379;28;20053;-13
2021/05/31 09:09:36;;;;;;;4.00;1.38;;;;;;;;;;4973382;28;20400;-13
2021/05/31 09:12:05;;;;;;;1.35;1.10;;;;;;;;;;4973284;28;20027;-13
2021/05/31 09:14:30;;;;;;;1.20;1.10;;;;;;;;;;4971888;28;20018;-13
2021/05/31 09:16:56;;;;;;;3.10;1.67;;;;;;;;;;4973539;28;20038;-12
2021/05/31 09:19:21;;;;;;;1.52;1.23;;;;;;;;;;4973314;28;20121;-13
2021/05/31 09:21:46;;;;;;;1.70;1.40;;;;;;;;;;4973172;28;20042;-13
2021/05/31 09:24:14;;;;;;;1.48;1.13;;;;;;;;;;4973418;28;20081;-13
2021/05/31 09:27:07;;;;;;;1.65;1.30;;;;;;;;;;4973217;28;20378;-13
2021/05/31 09:29:33;;;;;;;;;;;;;;;;;;4971394;28;20122;-13
2021/05/31 09:32:05;;;;;;;2.10;1.52;;;;;;;;;;4973813;28;19992;-13
2021/05/31 09:34:30;;;;;;;1.37;1.10;;;;;;;;;;4976497;28;20063;-13
2021/05/31 09:36:59;;;;;;;1.70;1.00;;;;;;;;;;4975458;28;20285;-13
2021/05/31 09:39:31;;;;;;;1.70;1.27;;;;;;;;;;4976908;28;20026;-13
2021/05/31 09:42:02;;;;;;;0.98;0.90;;;;;;;;;;4976909;28;20037;-12
2021/05/31 09:44:28;;;;;;;2.22;1.33;;;;;;;;;;4976753;28;20035;-12
2021/05/31 09:46:53;;;;;;;0.75;0.30;;;;;;;;;;4976655;28;20021;-13
2021/05/31 09:49:20;;;;;;;1.80;1.20;;;;;;;;;;4976396;28;20085;-13
2021/05/31 09:51:59;;;;;;;4.88;1.63;;;;;;;;;;4976475;28;20023;-12
2021/05/31 09:54:29;;;;;;;3.83;2.10;;;;;;;;;;4976627;28;20030;-13
2021/05/31 09:56:55;;;;;;;2.28;1.25;;;;;;;;;;4975162;28;20031;-12
2021/05/31 09:59:27;;;;;;;2.17;1.05;;;;;;;;;;4975088;28;20123;-13
2021/05/31 10:02:00;;;;;;;0.95;0.88;;;;;;;;;;4976288;28;20034;-13
2021/05/31 10:07:11;;;;;;;2.38;1.42;;;;;;;;;;4976257;28;20035;-15
2021/05/31 10:09:37;;;;;;;1.95;1.25;;;;;;;;;;4976111;28;20113;-13
2021/05/31 10:12:02;;;;;;;1.73;1.25;;;;;;;;;;4976018;28;20109;-13
2021/05/31 10:14:28;;;;;;;1.52;1.00;;;;;;;;;;4974743;28;20038;-12
2021/05/31 10:16:54;;;;;;;4.00;1.73;;;;;;;;;;4976345;28;20355;-13
2021/05/31 10:19:20;;;;;;;1.75;1.10;;;;;;;;;;4975996;28;20023;-13
2021/05/31 10:21:46;;;;;;;4.30;0.88;;;;;;;;;;4976046;28;20077;-13
2021/05/31 10:24:11;;;;;;;3.05;1.88;;;;;;;;;;4974482;28;20023;-13
2021/05/31 10:26:37;;;;;;;2.00;1.42;;;;;;;;;;4975924;28;20026;-12
2021/05/31 10:29:04;;;;;;;2.33;1.50;;;;;;;;;;4976170;28;20043;-13
2021/05/31 10:31:39;;;;;;;5.28;1.55;;;;;;;;;;4974408;28;20026;-13
2021/05/31 10:34:05;;;;;;;4.45;1.42;;;;;;;;;;4975672;28;20047;-13
2021/05/31 10:36:31;;;;;;;2.38;1.83;;;;;;;;;;4975553;28;20057;-13
2021/05/31 10:38:59;;;;;;;2.15;1.63;;;;;;;;;;4975695;28;20473;-13
2021/05/31 10:41:25;;;;;;;2.40;1.98;;;;;;;;;;4975532;28;20123;-13
2021/05/31 10:43:54;;;;;;;2.03;1.45;;;;;;;;;;4974349;28;20038;-13
2021/05/31 10:46:21;;;;;;;1.77;1.20;;;;;;;;;;4975399;28;20031;-13
2021/05/31 10:48:50;;;;;;;1.48;1.38;;;;;;;;;;4975436;28;20109;-12
2021/05/31 10:51:17;;;;;;;2.95;1.77;;;;;;;;;;4975783;28;20389;-13
2021/05/31 10:53:43;;;;;;;1.75;1.50;;;;;;;;;;4975189;28;20097;-13
2021/05/31 10:56:20;;;;;;;1.65;1.40;;;;;;;;;;4975376;28;20027;-13
2021/05/31 10:58:48;;;;;;;12.70;4.20;;;;;;;;;;4975278;28;20524;-13
2021/05/31 11:01:22;;;;;;;4.35;1.70;;;;;;;;;;4975223;28;20029;-13
2021/05/31 11:04:03;;;;;;;3.45;1.75;;;;;;;;;;4975100;28;20027;-12
2021/05/31 11:06:49;;;;;;;2.63;1.75;;;;;;;;;;4975358;28;20031;-13
2021/05/31 11:09:19;;;;;;;1.85;1.35;;;;;;;;;;4974870;28;20039;-13
2021/05/31 11:11:48;;;;;;;3.17;1.65;;;;;;;;;;4975314;28;20019;-13
2021/05/31 11:14:13;;;;;;;2.33;1.63;;;;;;;;;;4974934;28;20477;-13
2021/05/31 11:16:51;;;;;;;1.52;1.25;;;;;;;;;;4974816;28;20041;-17
2021/05/31 11:19:37;;;;;;;1.88;1.60;;;;;;;;;;4974904;28;20109;-13
2021/05/31 11:22:19;;;;;;;2.65;1.40;;;;;;;;;;4973078;28;20133;-13
2021/05/31 11:24:49;;;;;;;2.50;1.95;;;;;;;;;;4975063;28;20072;-13
2021/05/31 11:27:15;;;;;;;2.45;1.50;;;;;;;;;;4975006;28;20034;-13
2021/05/31 11:29:40;;;;;;;2.13;1.45;;;;;;;;;;4974625;28;20106;-13
2021/05/31 11:32:06;;;;;;;1.50;0.85;;;;;;;;;;4974658;28;20030;-13
2021/05/31 11:34:32;;;;;;;2.78;1.77;;;;;;;;;;4974306;28;20518;-13
2021/05/31 11:36:57;;;;;;;2.20;1.52;;;;;;;;;;4974796;28;20367;-13
2021/05/31 11:39:24;;;;;;;2.15;1.65;;;;;;;;;;4974589;28;20620;-13
2021/05/31 11:41:50;;;;;;;1.85;1.42;;;;;;;;;;4974584;28;20026;-13
2021/05/31 11:44:29;;;;;;;2.05;1.35;;;;;;;;;;4973149;28;20027;-13
2021/05/31 11:46:56;;;;;;;1.73;1.27;;;;;;;;;;4974488;28;20050;-12
2021/05/31 11:49:23;;;;;;;2.53;1.65;;;;;;;;;;4972923;28;20165;-13
2021/05/31 11:51:58;;;;;;;0.88;0.80;;;;;;;;;;4974235;28;20470;-14
2021/05/31 11:54:24;;;;;;;2.70;1.92;;;;;;;;;;4973897;28;20034;-13
2021/05/31 11:56:50;;;;;;;1.38;1.15;;;;;;;;;;4973992;28;20043;-13
2021/05/31 11:59:16;;;;;;;2.75;1.55;;;;;;;;;;4974237;28;20059;-13
2021/05/31 12:01:52;;;;;;;2.10;1.52;;;;;;;;;;4974342;28;20080;-13
2021/05/31 12:04:17;;;;;;;3.40;1.95;;;;;;;;;;4974084;28;20042;-13
2021/05/31 12:06:44;;;;;;;2.72;1.42;;;;;;;;;;4974131;28;20042;-13
2021/05/31 12:09:18;;;;;;;1.65;1.20;;;;;;;;;;4974032;28;20081;-13
2021/05/31 12:11:44;;;;;;;3.38;2.00;;;;;;;;;;4972686;28;20039;-14
2021/05/31 12:14:13;;;;;;;3.05;1.67;;;;;;;;;;4973994;28;20026;-13
2021/05/31 12:16:38;;;;;;;0.40;0.40;;;;;;;;;;4973807;28;20043;-13
2021/05/31 12:19:14;;;;;;;1.75;1.05;;;;;;;;;;4973847;28;20025;-13
2021/05/31 12:21:40;;;;;;;3.40;2.13;;;;;;;;;;4973754;28;20100;-13
2021/05/31 12:24:05;;;;;;;1.02;0.73;;;;;;;;;;4972626;28;20023;-13
2021/05/31 12:26:31;;;;;;;2.90;1.95;;;;;;;;;;4972461;28;20037;-13
2021/05/31 12:28:56;;;;;;;4.90;2.67;;;;;;;;;;4972524;28;20377;-13
2021/05/31 12:31:22;;;;;;;2.45;2.17;;;;;;;;;;4973675;28;20050;-13
2021/05/31 12:33:56;;;;;;;2.30;1.65;;;;;;;;;;4973723;28;20039;-13
2021/05/31 12:36:21;;;;;;;3.42;1.73;;;;;;;;;;4973883;28;20425;-13
2021/05/31 12:38:47;;;;;;;4.10;1.55;;;;;;;;;;4973659;28;20035;-13
2021/05/31 12:41:13;;;;;;;2.42;1.95;;;;;;;;;;4973634;28;20157;-13
2021/05/31 12:43:40;;;;;;;3.22;1.55;;;;;;;;;;4973730;28;20102;-13
2021/05/31 12:46:15;;;;;;;3.42;2.28;;;;;;;;;;4972235;28;20050;-13
2021/05/31 12:48:41;;;;;;;1.25;1.15;;;;;;;;;;4973703;28;20027;-13
2021/05/31 12:51:15;;;;;;;5.47;2.03;;;;;;;;;;4973817;28;20045;-13
2021/05/31 12:53:41;;;;;;;3.25;2.15;;;;;;;;;;4973297;28;20034;-13
2021/05/31 12:56:07;;;;;;;0.32;0.32;;;;;;;;;;4973750;28;20026;-13
2021/05/31 12:58:33;;;;;;;1.88;1.58;;;;;;;;;;4973427;28;20027;-13
2021/05/31 13:00:58;;;;;;;2.63;2.17;;;;;;;;;;4973407;28;20065;-13
2021/05/31 13:03:30;;;;;;;3.75;1.90;;;;;;;;;;4973601;28;20098;-13
2021/05/31 13:05:56;;;;;;;2.23;1.53;;;;;;;;;;4973422;28;20106;-13
2021/05/31 13:08:22;;;;;;;1.77;1.42;;;;;;;;;;4976604;28;20360;-12
2021/05/31 13:10:48;;;;;;;3.60;2.58;;;;;;;;;;4977266;28;20390;-13
2021/05/31 13:13:15;;;;;;;2.33;1.50;;;;;;;;;;4977463;28;20030;-13
2021/05/31 13:15:59;;;;;;;3.22;2.45;;;;;;;;;;4977043;28;20097;-13
2021/05/31 13:18:27;;;;;;;3.45;1.90;;;;;;;;;;4977427;28;20038;-13
2021/05/31 13:21:19;;;;;;;1.90;1.63;;;;;;;;;;4977171;28;20061;-13
2021/05/31 13:23:45;;;;;;;0.35;0.22;;;;;;;;;;4977132;28;20113;-13
2021/05/31 13:26:14;;;;;;;1.92;1.60;;;;;;;;;;4976947;28;20433;-13
2021/05/31 13:28:41;;;;;;;6.63;1.73;;;;;;;;;;4977192;28;20397;-13
2021/05/31 13:31:07;;;;;;;3.17;2.20;;;;;;;;;;4975738;28;20022;-13
2021/05/31 13:33:33;;;;;;;6.53;1.55;;;;;;;;;;4976581;28;20039;-13
2021/05/31 13:36:09;;;;;;;2.72;1.52;;;;;;;;;;4977071;28;20050;-13
2021/05/31 13:38:41;;;;;;;3.45;2.00;;;;;;;;;;4976937;28;20029;-13
2021/05/31 13:41:07;;;;;;;2.97;2.17;;;;;;;;;;4976796;28;20034;-13
2021/05/31 13:43:35;;;;;;;5.25;1.75;;;;;;;;;;4976795;28;20029;-13
2021/05/31 13:46:00;;;;;;;2.47;2.28;;;;;;;;;;4976973;28;20102;-13
2021/05/31 13:48:27;;;;;;;3.78;1.95;;;;;;;;;;4976503;28;20038;-13
2021/05/31 13:50:56;;;;;;;2.50;1.70;;;;;;;;;;4976540;28;20034;-13
2021/05/31 13:53:22;;;;;;;4.32;2.90;;;;;;;;;;4975167;28;20473;-12
2021/05/31 13:55:49;;;;;;;8.07;3.78;;;;;;;;;;4976631;28;20047;-12
2021/05/31 13:58:17;;;;;;;3.08;1.83;;;;;;;;;;4975234;28;20457;-13
2021/05/31 14:00:44;;;;;;;2.63;2.03;;;;;;;;;;4975039;28;20508;-12
2021/05/31 14:03:09;;;;;;;3.97;2.92;;;;;;;;;;4976653;28;20030;-13
2021/05/31 14:05:39;;;;;;;0.98;0.68;;;;;;;;;;4974716;28;20039;-13
2021/05/31 14:08:06;;;;;;;1.13;1.02;;;;;;;;;;4976566;28;20105;-13
2021/05/31 14:10:33;;;;;;;4.53;3.03;;;;;;;;;;4976196;28;20049;-13
2021/05/31 14:12:59;;;;;;;2.05;1.60;;;;;;;;;;4974611;28;20018;-13
2021/05/31 14:15:26;;;;;;;2.65;1.73;;;;;;;;;;4974327;28;20031;-13
2021/05/31 14:17:52;;;;;;;2.35;1.67;;;;;;;;;;4975274;28;20045;-14
2021/05/31 14:20:18;;;;;;;5.82;2.45;;;;;;;;;;4975513;28;20405;-13
2021/05/31 14:22:44;;;;;;;4.22;2.95;;;;;;;;;;4975746;28;20109;-13
2021/05/31 14:25:11;;;;;;;2.83;2.08;;;;;;;;;;4975784;28;20118;-13
2021/05/31 14:27:37;;;;;;;2.70;1.67;;;;;;;;;;4975735;28;20023;-13
2021/05/31 14:30:04;;;;;;;4.15;2.63;;;;;;;;;;4974640;28;20038;-12
2021/05/31 14:32:29;;;;;;;4.72;2.92;;;;;;;;;;4974484;28;20019;-13
2021/05/31 14:34:55;;;;;;;2.80;1.58;;;;;;;;;;4974332;28;20440;-13
2021/05/31 14:37:24;;;;;;;2.75;1.90;;;;;;;;;;4974455;28;20043;-13
2021/05/31 14:39:49;;;;;;;3.88;2.05;;;;;;;;;;4975659;28;20035;-12
2021/05/31 14:42:15;;;;;;;2.67;2.22;;;;;;;;;;4975538;28;20026;-13
2021/05/31 14:44:40;;;;;;;2.45;1.70;;;;;;;;;;4975536;28;20381;-13
2021/05/31 14:47:09;;;;;;;2.67;2.10;;;;;;;;;;4975544;28;20100;-12
2021/05/31 14:49:35;;;;;;;3.10;2.15;;;;;;;;;;4975623;28;20038;-12
2021/05/31 14:52:00;;;;;;;2.33;1.40;;;;;;;;;;4975478;28;20018;-13
2021/05/31 14:54:27;;;;;;;2.67;2.05;;;;;;;;;;4975361;28;20023;-12
2021/05/31 14:56:57;;;;;;;5.07;2.50;;;;;;;;;;4975522;28;20093;-13
2021/05/31 14:59:23;;;;;;;3.10;1.88;;;;;;;;;;4975264;28;20041;-13